Time;durP1;ratioP1;P1;durP2;ratioP2;P2;SDS_P1;SDS_P2;PMS_P1;PMS_P2;Temp;Humidity;BMP_temperature;BMP_pressure;BME280_temperature;BME280_humidity;BME280_pressure;Samples;Min_cycle;Max_cycle;Signal;HPM_P1;HPM_P2
2023/01/15 00:01:28;;;;;;;;;2.00;1.00;;;;;20.77;100.00;100109.13;5085262;27;45338;-82
2023/01/15 00:03:55;;;;;;;;;2.00;1.00;;;;;20.67;100.00;100114.47;5079010;28;45865;-83
2023/01/15 00:06:22;;;;;;;;;0.00;0.00;;;;;20.61;100.00;100107.38;5099755;27;45586;-85
2023/01/15 00:08:48;;;;;;;;;0.00;0.00;;;;;20.73;100.00;100105.34;5088137;27;45331;-81
2023/01/15 00:11:14;;;;;;;;;0.00;0.00;;;;;20.59;100.00;100102.25;5094008;27;47392;-83
2023/01/15 00:13:40;;;;;;;;;0.00;0.00;;;;;20.63;100.00;100099.84;5092885;27;45481;-83
2023/01/15 00:16:07;;;;;;;;;0.00;0.00;;;;;20.68;100.00;100105.28;5082072;27;45282;-83
2023/01/15 00:18:32;;;;;;;;;1.00;1.00;;;;;20.61;100.00;100104.69;5100709;27;45438;-83
2023/01/15 00:20:59;;;;;;;;;1.00;1.00;;;;;20.61;100.00;100092.03;5076201;28;46183;-83
2023/01/15 00:28:57;;;;;;;;;0.67;0.00;;;;;20.24;100.00;100092.78;5099796;27;45400;-82
2023/01/15 00:31:23;;;;;;;;;0.00;0.00;;;;;20.17;100.00;100092.97;5100251;27;45447;-84
2023/01/15 00:33:48;;;;;;;;;0.33;0.33;;;;;20.27;100.00;100089.56;5081607;27;45325;-83
2023/01/15 00:36:14;;;;;;;;;3.33;2.00;;;;;20.20;100.00;100095.16;5100231;27;45254;-82
2023/01/15 00:38:39;;;;;;;;;3.00;1.33;;;;;20.38;100.00;100109.38;5100011;27;45253;-83
2023/01/15 00:41:04;;;;;;;;;1.00;1.00;;;;;20.18;100.00;100119.69;5081536;27;46872;-83
2023/01/15 00:43:30;;;;;;;;;1.67;0.67;;;;;20.20;100.00;100089.75;5100010;27;45245;-83
2023/01/15 00:45:55;;;;;;;;;1.00;1.00;;;;;20.27;100.00;100105.75;5100433;27;45374;-85
2023/01/15 00:48:20;;;;;;;;;1.00;1.00;;;;;20.38;100.00;100112.88;5086160;27;45212;-83
2023/01/15 00:50:46;;;;;;;;;1.00;1.00;;;;;20.17;100.00;100107.28;5081848;27;48037;-83
2023/01/15 00:53:11;;;;;;;;;1.00;0.00;;;;;20.29;100.00;100095.50;5100171;27;45193;-84
2023/01/15 00:55:36;;;;;;;;;1.00;0.00;;;;;20.26;100.00;100096.84;5100036;27;45405;-83
2023/01/15 00:58:02;;;;;;;;;0.00;0.00;;;;;20.30;100.00;100106.03;5081308;27;47137;-83
2023/01/15 01:00:27;;;;;;;;;2.00;1.00;;;;;20.34;100.00;100114.44;5081527;27;47058;-83
2023/01/15 01:02:52;;;;;;;;;0.00;0.00;;;;;20.42;100.00;100116.69;5096058;27;45297;-84
2023/01/15 01:05:18;;;;;;;;;0.00;0.00;;;;;20.37;100.00;100111.25;5091221;27;45558;-81
2023/01/15 01:07:43;;;;;;;;;0.67;0.67;;;;;20.33;100.00;100087.72;5094502;27;46237;-81
2023/01/15 01:10:09;;;;;;;;;1.67;1.67;;;;;20.42;100.00;100111.28;5081225;27;48002;-81
2023/01/15 01:12:36;;;;;;;;;3.67;1.33;;;;;20.37;100.00;100113.94;5100499;27;45312;-82
2023/01/15 01:15:01;;;;;;;;;2.00;0.00;;;;;20.33;100.00;100112.84;5081571;27;45600;-82
2023/01/15 01:17:27;;;;;;;;;1.00;1.00;;;;;20.33;100.00;100102.03;5099334;27;45295;-83
2023/01/15 01:19:52;;;;;;;;;1.33;1.00;;;;;20.45;100.00;100077.59;5099593;27;45519;-84
2023/01/15 01:22:18;;;;;;;;;0.00;0.00;;;;;20.46;100.00;100081.91;5100501;27;45337;-83
2023/01/15 01:24:43;;;;;;;;;0.00;0.00;;;;;20.65;100.00;100092.34;5104702;27;45314;-83
2023/01/15 01:27:08;;;;;;;;;1.00;1.00;;;;;20.58;100.00;100105.19;5103466;27;45464;-83
2023/01/15 01:29:34;;;;;;;;;0.00;0.00;;;;;20.55;100.00;100106.53;5103049;27;46253;-83
2023/01/15 01:31:59;;;;;;;;;1.00;1.00;;;;;20.66;100.00;100124.47;5103081;27;45294;-83
2023/01/15 01:34:24;;;;;;;;;0.67;0.67;;;;;20.64;100.00;100121.19;5103235;27;45439;-84
2023/01/15 01:36:50;;;;;;;;;1.00;1.00;;;;;20.60;100.00;100125.50;5104176;27;45461;-83
2023/01/15 01:39:17;;;;;;;;;0.00;0.00;;;;;20.61;100.00;100124.41;5106934;27;46019;-83
2023/01/15 01:41:43;;;;;;;;;1.00;1.00;;;;;20.58;100.00;100141.13;5085281;27;45270;-85
2023/01/15 01:44:30;;;;;;;;;2.00;1.00;;;;;20.59;100.00;100133.84;5103019;27;45441;-83
2023/01/15 01:46:56;;;;;;;;;0.33;0.33;;;;;20.60;100.00;100132.75;5085373;27;47476;-84
2023/01/15 01:49:23;;;;;;;;;1.00;1.00;;;;;20.60;100.00;100132.75;5103878;27;45444;-85
2023/01/15 01:51:57;;;;;;;;;2.00;0.00;;;;;20.51;100.00;100127.03;5104094;27;45483;-85
2023/01/15 01:54:25;;;;;;;;;1.00;1.00;;;;;20.45;100.00;100123.47;5102876;27;45439;-84
2023/01/15 01:56:52;;;;;;;;;2.00;1.00;;;;;20.50;100.00;100123.50;5082711;27;45260;-84
2023/01/15 01:59:19;;;;;;;;;0.00;0.00;;;;;20.39;100.00;100114.50;5097702;27;46628;-84
2023/01/15 02:01:46;;;;;;;;;0.00;0.00;;;;;20.42;100.00;100137.47;5104576;27;45397;-84
2023/01/15 02:04:12;;;;;;;;;0.33;0.33;;;;;20.34;100.00;100127.13;5104180;27;45292;-85
2023/01/15 02:06:41;;;;;;;;;0.00;0.00;;;;;20.29;100.00;100142.19;5105947;27;45285;-84
2023/01/15 02:09:07;;;;;;;;;0.00;0.00;;;;;20.30;100.00;100148.41;5091982;27;45295;-83
2023/01/15 02:11:33;;;;;;;;;1.67;1.67;;;;;20.20;100.00;100138.31;5088182;27;45302;-85
2023/01/15 02:14:14;;;;;;;;;1.00;1.00;;;;;20.23;100.00;100137.00;5107509;27;45362;-84
2023/01/15 02:17:03;;;;;;;;;0.33;0.00;;;;;20.30;100.00;100145.72;5089557;27;47412;-85
2023/01/15 02:19:56;;;;;;;;;0.00;0.00;;;;;20.22;100.00;100130.78;5090355;27;45345;-85
2023/01/15 02:22:53;;;;;;;;;0.00;0.00;;;;;20.36;100.00;100151.97;5083751;27;45237;-84
2023/01/15 02:25:42;;;;;;;;;0.00;0.00;;;;;20.20;100.00;100135.63;5104401;27;45388;-85
2023/01/15 02:28:30;;;;;;;;;0.00;0.00;;;;;20.43;100.00;100145.31;5105699;27;45400;-84
2023/01/15 02:31:08;;;;;;;;;0.67;0.33;;;;;20.40;100.00;100155.78;5086832;27;48600;-83
2023/01/15 02:33:39;;;;;;;;;0.00;0.00;;;;;20.31;100.00;100153.56;5103394;27;44747;-84
2023/01/15 02:36:10;;;;;;;;;0.00;0.00;;;;;20.42;100.00;100169.84;5085525;27;45270;-83
2023/01/15 02:38:40;;;;;;;;;1.00;0.33;;;;;20.44;99.64;100170.41;5104953;27;45372;-85
2023/01/15 02:41:15;;;;;;;;;0.00;0.00;;;;;20.38;99.19;100174.13;5103955;27;46208;-84
2023/01/15 02:43:44;;;;;;;;;0.00;0.00;;;;;20.39;97.91;100173.06;5085550;27;46393;-85
2023/01/15 02:46:13;;;;;;;;;0.00;0.00;;;;;20.32;99.30;100170.53;5085704;27;45784;-85
2023/01/15 02:48:43;;;;;;;;;1.00;1.00;;;;;20.34;99.50;100184.59;5095948;27;45995;-86
2023/01/15 02:51:13;;;;;;;;;0.00;0.00;;;;;20.32;100.00;100178.63;5102427;27;45439;-84
2023/01/15 02:53:42;;;;;;;;;1.00;0.00;;;;;20.36;99.22;100182.47;5066138;28;45909;-84
2023/01/15 02:56:13;;;;;;;;;0.67;0.00;;;;;20.22;99.25;100173.97;5089110;27;45393;-85
2023/01/15 02:58:42;;;;;;;;;1.00;0.00;;;;;20.30;98.98;100164.59;5104046;27;45221;-85
2023/01/15 03:01:15;;;;;;;;;0.67;0.00;;;;;20.32;99.33;100189.44;5100932;27;45503;-85
2023/01/15 03:04:02;;;;;;;;;0.00;0.00;;;;;20.33;98.35;100192.94;5094129;27;45237;-85
2023/01/15 03:06:51;;;;;;;;;0.00;0.00;;;;;20.20;96.13;100194.16;5090827;27;45334;-85
2023/01/15 03:09:17;;;;;;;;;0.00;0.00;;;;;20.19;97.23;100187.94;5103813;27;45349;-86
2023/01/15 03:11:48;;;;;;;;;0.67;0.00;;;;;19.49;98.54;100202.69;5075046;27;46207;-85
2023/01/15 03:14:13;;;;;;;;;0.00;0.00;;;;;19.51;100.00;100191.63;5097944;27;45400;-85
2023/01/15 03:16:46;;;;;;;;;0.67;0.00;;;;;19.69;100.00;100206.72;5081089;27;45316;-86
2023/01/15 03:19:21;;;;;;;;;0.00;0.00;;;;;19.79;100.00;100216.84;5084020;27;46993;-85
2023/01/15 03:21:46;;;;;;;;;1.00;1.00;;;;;19.62;100.00;100209.59;5080023;27;48069;-85
2023/01/15 03:24:16;;;;;;;;;0.33;0.00;;;;;19.50;99.24;100190.84;5100836;27;45266;-83
2023/01/15 03:26:42;;;;;;;;;0.00;0.00;;;;;19.41;100.00;100200.41;5103100;27;45327;-85
2023/01/15 03:29:09;;;;;;;;;0.00;0.00;;;;;19.45;100.00;100206.91;5096583;27;46380;-84
2023/01/15 03:31:35;;;;;;;;;2.00;0.00;;;;;19.42;99.02;100219.00;5094862;27;45344;-86
2023/01/15 03:34:01;;;;;;;;;0.00;0.00;;;;;19.39;100.00;100232.97;5076816;28;45310;-84
2023/01/15 03:36:27;;;;;;;;;1.67;0.00;;;;;19.41;100.00;100230.03;5076932;27;45438;-85
2023/01/15 03:38:53;;;;;;;;;0.00;0.00;;;;;19.41;100.00;100230.03;5100881;27;45418;-85
2023/01/15 03:41:40;;;;;;;;;0.33;0.33;;;;;19.42;100.00;100202.84;5101053;27;45331;-85
2023/01/15 03:44:17;;;;;;;;;0.00;0.00;;;;;19.36;100.00;100205.72;5090292;27;45240;-84
2023/01/15 03:47:00;;;;;;;;;0.00;0.00;;;;;18.73;100.00;100198.47;5100754;27;45390;-85
2023/01/15 03:49:40;;;;;;;;;0.67;0.00;;;;;18.45;100.00;100176.72;5101152;27;45337;-85
2023/01/15 03:52:17;;;;;;;;;0.00;0.00;;;;;18.45;100.00;100197.44;5070457;27;47940;-84
2023/01/15 03:55:01;;;;;;;;;0.00;0.00;;;;;18.52;100.00;100190.84;5087176;27;45255;-84
2023/01/15 03:57:35;;;;;;;;;0.00;0.00;;;;;18.50;100.00;100201.03;5101706;27;45483;-84
2023/01/15 04:00:26;;;;;;;;;0.00;0.00;;;;;18.47;100.00;100203.41;5101269;27;45316;-83
2023/01/15 04:02:55;;;;;;;;;2.33;1.00;;;;;18.41;100.00;100214.03;5082406;27;48125;-84
2023/01/15 04:05:21;;;;;;;;;0.33;0.33;;;;;18.48;100.00;100216.59;5082754;27;45205;-86
2023/01/15 04:07:48;;;;;;;;;0.00;0.00;;;;;18.29;100.00;100214.09;5114847;27;45281;-85
2023/01/15 04:10:14;;;;;;;;;0.00;0.00;;;;;18.27;100.00;100220.75;5100545;27;45442;-86
2023/01/15 04:12:40;;;;;;;;;0.00;0.00;;;;;18.16;100.00;100217.06;5082579;27;48885;-85
2023/01/15 04:15:06;;;;;;;;;0.00;0.00;;;;;18.21;100.00;100211.78;5100700;27;45466;-83
2023/01/15 04:17:31;;;;;;;;;0.00;0.00;;;;;18.12;100.00;100213.22;5079991;27;45422;-84
2023/01/15 04:19:57;;;;;;;;;0.00;0.00;;;;;18.07;100.00;100215.78;5073274;27;46003;-85
2023/01/15 04:22:22;;;;;;;;;0.00;0.00;;;;;18.17;100.00;100224.09;5100611;27;45462;-86
2023/01/15 04:24:47;;;;;;;;;0.67;0.67;;;;;18.09;100.00;100206.41;5101352;27;45424;-86
2023/01/15 04:27:12;;;;;;;;;0.00;0.00;;;;;18.11;100.00;100206.22;5078576;28;45313;-85
2023/01/15 04:29:38;;;;;;;;;0.00;0.00;;;;;18.15;100.00;100205.50;5091172;27;45278;-86
2023/01/15 04:32:03;;;;;;;;;0.00;0.00;;;;;18.14;100.00;100197.66;5097682;27;46187;-87
2023/01/15 04:34:29;;;;;;;;;0.67;0.67;;;;;18.11;100.00;100180.13;5090394;27;45365;-84
2023/01/15 04:36:55;;;;;;;;;1.00;0.00;;;;;18.39;100.00;100177.69;5082089;27;45319;-86
2023/01/15 04:39:22;;;;;;;;;0.00;0.00;;;;;18.38;100.00;100173.38;5100259;27;45404;-84
2023/01/15 04:44:34;;;;;;;;;1.00;1.00;;;;;18.21;100.00;100190.28;5093247;27;45268;-85
2023/01/15 04:46:59;;;;;;;;;0.00;0.00;;;;;18.08;100.00;100183.25;5100488;27;45405;-87
2023/01/15 04:49:25;;;;;;;;;0.00;0.00;;;;;18.18;98.84;100209.56;5082773;27;46007;-87
2023/01/15 04:51:51;;;;;;;;;0.00;0.00;;;;;18.23;100.00;100217.72;5100039;27;45274;-83
2023/01/15 04:54:17;;;;;;;;;0.00;0.00;;;;;18.28;100.00;100214.31;5100253;27;45431;-87
2023/01/15 04:56:49;;;;;;;;;0.00;0.00;;;;;18.30;99.91;100222.97;5082234;27;45350;-86
2023/01/15 04:59:17;;;;;;;;;0.33;0.00;;;;;18.00;98.46;100205.13;5100288;27;45531;-85
2023/01/15 05:01:42;;;;;;;;;0.00;0.00;;;;;18.04;99.94;100225.13;5100086;27;46604;-85
2023/01/15 05:04:08;;;;;;;;;0.00;0.00;;;;;18.07;100.00;100224.63;5081744;27;45310;-85
2023/01/15 05:06:33;;;;;;;;;0.00;0.00;;;;;18.20;100.00;100231.69;5100343;27;45358;-84
2023/01/15 05:09:00;;;;;;;;;0.00;0.00;;;;;18.15;99.22;100229.69;5078650;27;47283;-84
2023/01/15 05:11:26;;;;;;;;;0.00;0.00;;;;;18.20;98.39;100233.53;5081645;27;48424;-88
2023/01/15 05:13:52;;;;;;;;;0.00;0.00;;;;;18.29;98.69;100237.50;5100008;27;45300;-83
2023/01/15 05:16:28;;;;;;;;;0.00;0.00;;;;;18.01;99.49;100236.34;5100068;27;45424;-88
2023/01/15 05:18:57;;;;;;;;;0.00;0.00;;;;;18.02;99.40;100235.31;5099872;27;45268;-86
2023/01/15 05:21:31;;;;;;;;;1.00;0.00;;;;;17.89;99.42;100241.72;5082036;27;47047;-88
2023/01/15 05:23:59;;;;;;;;;1.00;0.00;;;;;17.83;98.38;100237.28;5100186;27;45374;-84
2023/01/15 05:26:25;;;;;;;;;0.00;0.00;;;;;17.79;94.80;100250.41;5082203;27;45375;-88
2023/01/15 05:28:55;;;;;;;;;0.00;0.00;;;;;17.66;94.33;100246.09;5086583;27;45650;-87
2023/01/15 05:31:21;;;;;;;;;0.33;0.00;;;;;17.66;97.23;100252.25;5088713;27;46272;-88
2023/01/15 05:33:48;;;;;;;;;0.00;0.00;;;;;17.78;95.42;100263.00;5097695;27;45413;-86
2023/01/15 05:36:17;;;;;;;;;0.00;0.00;;;;;17.74;96.49;100259.16;5100285;27;45182;-85
2023/01/15 05:38:43;;;;;;;;;0.00;0.00;;;;;17.72;94.18;100258.56;5099848;27;45453;-83
2023/01/15 05:43:58;;;;;;;;;0.33;0.00;;;;;17.82;95.36;100265.22;5079814;27;45377;-85
2023/01/15 05:46:24;;;;;;;;;0.00;0.00;;;;;17.84;94.81;100279.25;5076247;27;45258;-87
2023/01/15 05:48:49;;;;;;;;;0.00;0.00;;;;;17.81;93.85;100271.66;5100019;27;45231;-84
2023/01/15 05:51:15;;;;;;;;;0.00;0.00;;;;;17.84;94.62;100280.06;5081843;27;47008;-86
2023/01/15 05:53:40;;;;;;;;;2.00;1.00;;;;;17.82;92.96;100273.28;5098697;27;45939;-87
2023/01/15 05:56:06;;;;;;;;;0.00;0.00;;;;;17.72;94.09;100260.44;5101026;27;45370;-88
2023/01/15 05:58:31;;;;;;;;;1.00;0.00;;;;;17.61;93.21;100260.22;5101976;27;46173;-87
2023/01/15 06:00:57;;;;;;;;;0.00;0.00;;;;;17.65;93.84;100295.47;5086578;27;48246;-86
2023/01/15 06:03:24;;;;;;;;;0.00;0.00;;;;;17.67;91.58;100299.59;5082237;27;45303;-85
2023/01/15 06:05:51;;;;;;;;;2.00;0.00;;;;;17.60;92.51;100284.63;5088446;27;45363;-85
2023/01/15 06:08:17;;;;;;;;;0.00;0.00;;;;;17.60;92.44;100309.63;5113140;27;45581;-86
2023/01/15 06:10:44;;;;;;;;;0.00;0.00;;;;;17.60;93.49;100308.81;5103764;27;45285;-86
2023/01/15 06:13:09;;;;;;;;;0.00;0.00;;;;;17.51;92.97;100298.38;5103730;27;45278;-85
2023/01/15 06:15:34;;;;;;;;;0.00;0.00;;;;;17.59;92.06;100301.78;5104427;27;45193;-85
2023/01/15 06:18:00;;;;;;;;;0.00;0.00;;;;;17.70;92.23;100310.91;5103356;27;45229;-84
2023/01/15 06:20:25;;;;;;;;;1.00;1.00;;;;;17.78;91.08;100321.34;5115906;27;47105;-85
2023/01/15 06:22:50;;;;;;;;;0.00;0.00;;;;;17.80;90.23;100327.28;5094319;27;45307;-86
2023/01/15 06:25:16;;;;;;;;;0.00;0.00;;;;;17.74;89.63;100345.16;5098156;27;45259;-86
2023/01/15 06:27:43;;;;;;;;;1.00;1.00;;;;;17.60;89.24;100330.31;5083724;28;45601;-85
2023/01/15 06:30:10;;;;;;;;;0.00;0.00;;;;;17.56;89.00;100329.09;5099567;27;46046;-84
2023/01/15 06:32:35;;;;;;;;;0.00;0.00;;;;;17.76;89.70;100343.06;5087526;27;45312;-83
2023/01/15 06:35:00;;;;;;;;;0.00;0.00;;;;;17.69;88.37;100345.03;5106293;27;45395;-84
2023/01/15 06:37:26;;;;;;;;;1.00;1.00;;;;;17.65;86.86;100341.16;5085449;27;47407;-85
2023/01/15 06:39:51;;;;;;;;;0.00;0.00;;;;;17.46;87.84;100332.38;5088490;27;47355;-85
2023/01/15 06:47:45;;;;;;;;;0.00;0.00;;;;;17.45;86.08;100353.03;5117523;27;45512;-83
2023/01/15 06:50:11;;;;;;;;;0.67;0.67;;;;;17.62;84.55;100363.13;5104613;27;45350;-85
2023/01/15 06:52:36;;;;;;;;;1.00;1.00;;;;;17.51;85.14;100354.00;5094360;27;45275;-84
2023/01/15 06:55:02;;;;;;;;;1.00;1.00;;;;;17.61;83.56;100358.81;5099949;27;45398;-85
2023/01/15 06:57:27;;;;;;;;;0.00;0.00;;;;;17.52;81.98;100356.47;5082509;27;45947;-86
2023/01/15 06:59:53;;;;;;;;;0.67;0.67;;;;;17.53;83.68;100381.44;5078534;27;47337;-84
2023/01/15 07:02:18;;;;;;;;;1.00;1.00;;;;;17.44;81.79;100372.91;5081873;27;45314;-83
2023/01/15 07:04:45;;;;;;;;;1.00;1.00;;;;;17.60;80.97;100398.28;5102520;27;45211;-85
2023/01/15 07:07:10;;;;;;;;;0.00;0.00;;;;;17.45;79.25;100409.44;5085851;27;47283;-85
2023/01/15 07:09:36;;;;;;;;;0.00;0.00;;;;;17.54;80.83;100401.91;5102117;27;46456;-85
2023/01/15 07:12:01;;;;;;;;;3.00;0.00;;;;;17.61;81.96;100413.38;5102356;27;45246;-81
2023/01/15 07:14:27;;;;;;;;;0.00;0.00;;;;;17.47;80.51;100399.31;5101897;27;45243;-83
2023/01/15 07:16:52;;;;;;;;;0.00;0.00;;;;;17.42;78.99;100396.50;5072321;28;46356;-78
2023/01/15 07:19:19;;;;;;;;;0.00;0.00;;;;;17.44;79.80;100415.88;5098778;27;45338;-81
2023/01/15 07:21:45;;;;;;;;;1.00;1.00;;;;;17.32;80.00;100421.19;5101374;27;45357;-80
2023/01/15 07:24:11;;;;;;;;;0.00;0.00;;;;;17.34;79.37;100418.28;5100637;27;45340;-79
2023/01/15 07:26:37;;;;;;;;;0.00;0.00;;;;;17.42;79.17;100434.91;5102430;27;45580;-83
2023/01/15 07:29:03;;;;;;;;;0.00;0.00;;;;;17.46;79.44;100435.28;5101841;27;45479;-82
2023/01/15 07:31:28;;;;;;;;;0.00;0.00;;;;;17.31;79.63;100422.25;5083507;27;45414;-81
2023/01/15 07:33:57;;;;;;;;;0.00;0.00;;;;;17.41;81.15;100435.97;5085902;27;45500;-82
2023/01/15 07:36:23;;;;;;;;;1.00;1.00;;;;;17.36;80.20;100435.00;5093444;27;46954;-83
2023/01/15 07:38:49;;;;;;;;;0.00;0.00;;;;;17.37;79.72;100442.84;5083501;27;47868;-82
2023/01/15 07:49:44;;;;;;;;;0.67;0.00;;;;;17.36;78.76;100435.81;5102461;27;45307;-81
2023/01/15 07:52:11;;;;;;;;;0.00;0.00;;;;;17.34;75.22;100437.09;5089198;27;45229;-81
2023/01/15 07:54:36;;;;;;;;;0.00;0.00;;;;;17.38;77.23;100419.47;5102804;27;45300;-82
2023/01/15 07:57:02;;;;;;;;;0.67;0.00;;;;;16.00;80.96;100427.50;5082869;27;45925;-80
2023/01/15 07:59:28;;;;;;;;;0.33;0.33;;;;;15.31;91.10;100438.81;5082866;27;48232;-82
2023/01/15 08:01:53;;;;;;;;;1.00;1.00;;;;;15.09;94.53;100431.09;5100992;27;45559;-82
2023/01/15 08:04:19;;;;;;;;;1.00;1.00;;;;;15.00;93.82;100434.00;5092686;27;45801;-79
2023/01/15 08:06:44;;;;;;;;;1.00;1.00;;;;;15.01;95.67;100426.78;5101172;27;45498;-81
2023/01/15 08:09:09;;;;;;;;;1.00;1.00;;;;;14.95;96.67;100427.63;5099743;27;45470;-80
2023/01/15 08:17:03;;;;;;;;;1.00;1.00;;;;;14.97;100.00;100437.09;5112585;27;45332;-81
2023/01/15 08:19:28;;;;;;;;;0.00;0.00;;;;;14.89;99.91;100426.63;5096784;27;47124;-80
2023/01/15 08:21:59;;;;;;;;;0.33;0.33;;;;;14.93;100.00;100437.75;5084002;27;45358;-80
2023/01/15 08:24:24;;;;;;;;;1.00;1.00;;;;;14.88;99.24;100444.53;5085743;27;45237;-83
2023/01/15 08:26:51;;;;;;;;;1.67;1.00;;;;;14.90;98.42;100438.97;5086700;27;45932;-81
2023/01/15 08:29:16;;;;;;;;;0.00;0.00;;;;;14.88;99.07;100420.44;5086516;27;47358;-82
2023/01/15 08:31:42;;;;;;;;;2.67;0.67;;;;;14.96;100.00;100421.25;5070552;28;45243;-85
2023/01/15 08:34:07;;;;;;;;;1.00;1.00;;;;;14.94;99.53;100413.44;5082476;27;45263;-84
2023/01/15 08:36:33;;;;;;;;;0.67;0.67;;;;;15.04;99.91;100423.69;5101856;27;45211;-82
2023/01/15 08:38:58;;;;;;;;;0.00;0.00;;;;;14.88;97.47;100419.66;5081129;27;45290;-82
2023/01/15 08:41:24;;;;;;;;;1.33;0.67;;;;;15.01;100.00;100426.78;5094763;27;45480;-84
2023/01/15 08:43:49;;;;;;;;;1.00;1.00;;;;;15.04;100.00;100442.44;5103209;27;45295;-84
2023/01/15 08:46:14;;;;;;;;;0.00;0.00;;;;;14.89;97.81;100437.31;5100955;27;45549;-83
2023/01/15 08:48:40;;;;;;;;;0.00;0.00;;;;;14.93;99.21;100449.25;5105326;27;45318;-83
2023/01/15 08:51:08;;;;;;;;;3.00;2.00;;;;;14.93;98.37;100446.56;5084437;27;45288;-84
2023/01/15 08:53:34;;;;;;;;;2.00;2.00;;;;;14.98;99.12;100444.09;5102357;27;45494;-79
2023/01/15 08:55:59;;;;;;;;;1.00;0.67;;;;;14.98;96.85;100436.06;5068843;28;46459;-80
2023/01/15 08:58:30;;;;;;;;;0.00;0.00;;;;;15.15;96.01;100443.63;5074409;28;47136;-82
2023/01/15 09:00:56;;;;;;;;;0.00;0.00;;;;;15.20;96.40;100437.66;5090454;27;45465;-79
2023/01/15 09:03:22;;;;;;;;;0.00;0.00;;;;;15.23;96.62;100426.47;5087267;27;45459;-82
2023/01/15 09:05:47;;;;;;;;;1.00;1.00;;;;;15.24;95.83;100409.41;5100393;27;45455;-82
2023/01/15 09:08:13;;;;;;;;;1.00;0.00;;;;;15.27;95.95;100425.03;5101041;27;45424;-79
2023/01/15 09:10:38;;;;;;;;;2.00;1.00;;;;;15.25;96.94;100419.06;5100675;27;45314;-80
2023/01/15 09:13:03;;;;;;;;;0.67;0.67;;;;;15.22;96.29;100430.22;5084514;27;45258;-80
2023/01/15 09:15:31;;;;;;;;;2.33;2.33;;;;;15.25;96.38;100444.00;5101703;27;45213;-80
2023/01/15 09:17:57;;;;;;;;;1.00;0.67;;;;;15.14;97.17;100439.28;5101481;27;46442;-79
2023/01/15 09:20:23;;;;;;;;;0.33;0.33;;;;;15.13;97.13;100441.16;5081919;27;45376;-81
2023/01/15 09:22:49;;;;;;;;;2.33;1.67;;;;;15.20;98.09;100449.16;5101146;27;45350;-79
2023/01/15 09:25:17;;;;;;;;;1.00;1.00;;;;;15.24;97.18;100445.00;5102227;27;45428;-82
2023/01/15 09:27:42;;;;;;;;;1.00;1.00;;;;;15.29;95.04;100448.94;5102978;27;45370;-79
2023/01/15 09:30:14;;;;;;;;;1.00;1.00;;;;;15.24;96.87;100428.16;5082430;27;45397;-78
2023/01/15 09:32:40;;;;;;;;;2.00;2.00;;;;;15.33;95.90;100442.09;5109384;27;45345;-78
2023/01/15 09:35:06;;;;;;;;;2.00;1.00;;;;;15.30;94.38;100453.25;5080540;27;46558;-78
2023/01/15 09:37:31;;;;;;;;;2.33;1.00;;;;;15.34;93.44;100457.13;5107706;27;46300;-78
2023/01/15 09:39:56;;;;;;;;;1.00;1.00;;;;;15.30;94.31;100445.22;5111044;27;45371;-76
2023/01/15 09:42:30;;;;;;;;;2.00;1.00;;;;;15.52;93.64;100454.59;5111875;27;45530;-78
2023/01/15 09:45:27;;;;;;;;;1.00;1.00;;;;;15.43;93.22;100445.16;5114321;27;45386;-77
2023/01/15 09:48:18;;;;;;;;;1.67;1.67;;;;;15.48;94.37;100464.06;5096192;27;48431;-77
2023/01/15 09:50:59;;;;;;;;;0.33;0.00;;;;;15.33;92.51;100450.13;5083813;27;45523;-76
2023/01/15 09:53:30;;;;;;;;;1.00;1.00;;;;;15.58;93.17;100457.41;5099552;27;45172;-76
2023/01/15 09:55:58;;;;;;;;;3.67;2.00;;;;;15.58;92.91;100463.59;5120071;27;45476;-77
2023/01/15 09:58:42;;;;;;;;;1.33;1.00;;;;;15.68;93.31;100467.69;5119323;27;46416;-76
2023/01/15 10:01:16;;;;;;;;;1.33;1.33;;;;;15.68;91.50;100463.13;5097305;27;45588;-76
2023/01/15 10:03:47;;;;;;;;;2.00;1.00;;;;;15.83;91.82;100476.22;5103283;27;45350;-78
2023/01/15 10:06:24;;;;;;;;;2.00;2.00;;;;;15.96;89.07;100488.78;5106441;27;45326;-79
2023/01/15 10:09:01;;;;;;;;;1.00;1.00;;;;;15.92;89.06;100470.63;5104969;27;45351;-78
2023/01/15 10:14:37;;;;;;;;;2.00;1.33;;;;;16.06;88.63;100496.31;5106900;27;45456;-78
2023/01/15 10:17:23;;;;;;;;;1.00;0.00;;;;;16.16;87.23;100487.78;5082882;27;45476;-78
2023/01/15 10:19:50;;;;;;;;;2.00;2.00;;;;;16.17;88.55;100481.41;5080392;27;47352;-78
2023/01/15 10:22:47;;;;;;;;;2.00;1.00;;;;;16.12;85.62;100487.41;5088889;27;45358;-79
2023/01/15 10:25:25;;;;;;;;;1.00;1.00;;;;;16.14;88.88;100471.91;5102149;27;45510;-79
2023/01/15 10:27:51;;;;;;;;;2.67;2.33;;;;;16.20;88.88;100467.56;5108172;27;45477;-77
2023/01/15 10:30:54;;;;;;;;;1.00;1.00;;;;;16.32;85.19;100477.56;5088549;27;48176;-78
2023/01/15 10:33:50;;;;;;;;;2.00;2.00;;;;;16.37;83.92;100473.19;5035230;27;44668;-80
2023/01/15 10:36:33;;;;;;;;;0.33;0.33;;;;;16.40;84.13;100466.56;5105268;27;45275;-78
2023/01/15 10:39:04;;;;;;;;;0.00;0.00;;;;;16.57;84.97;100466.81;5105275;27;45470;-78
2023/01/15 10:41:51;;;;;;;;;1.00;1.00;;;;;16.66;85.29;100467.34;5089738;27;47700;-77
2023/01/15 10:44:33;;;;;;;;;1.67;1.67;;;;;16.59;83.64;100469.28;5101678;27;45581;-77
2023/01/15 10:47:01;;;;;;;;;3.67;2.67;;;;;16.65;87.39;100465.72;5108032;27;45361;-75
2023/01/15 10:49:28;;;;;;;;;1.67;1.00;;;;;16.65;83.36;100453.09;5092958;27;46687;-76
2023/01/15 10:52:16;;;;;;;;;3.33;2.00;;;;;16.58;84.58;100457.72;5110001;27;46218;-77
2023/01/15 10:54:53;;;;;;;;;10.00;9.33;;;;;16.62;81.15;100448.22;5102183;27;45259;-77
2023/01/15 10:57:40;;;;;;;;;3.00;3.00;;;;;16.61;80.91;100459.16;5107384;27;45346;-78
2023/01/15 11:00:09;;;;;;;;;3.00;3.00;;;;;16.64;84.47;100454.16;5101885;27;45350;-76
2023/01/15 11:03:25;;;;;;;;;1.00;1.00;;;;;16.57;81.08;100453.41;5085784;27;47667;-77
2023/01/15 11:05:50;;;;;;;;;3.33;2.00;;;;;16.63;82.15;100451.69;5071970;27;45603;-77
2023/01/15 11:08:31;;;;;;;;;0.00;0.00;;;;;16.61;79.35;100451.13;5106333;27;45570;-76
2023/01/15 11:11:03;;;;;;;;;2.00;1.00;;;;;16.58;80.27;100435.47;5104801;27;45844;-75
2023/01/15 11:21:51;;;;;;;;;1.00;1.00;;;;;16.82;79.27;100443.69;5090072;27;45304;-78
2023/01/15 11:24:17;;;;;;;;;16.00;16.00;;;;;16.96;80.14;100449.69;5085997;27;47110;-76
2023/01/15 11:26:50;;;;;;;;;3.67;3.00;;;;;16.99;80.09;100439.34;5105939;27;45074;-77
2023/01/15 11:29:36;;;;;;;;;4.67;2.00;;;;;17.00;78.83;100440.19;5093058;27;45306;-77
2023/01/15 11:32:02;;;;;;;;;3.00;3.00;;;;;17.08;77.07;100436.38;5110728;27;44810;-76
2023/01/15 11:34:27;;;;;;;;;3.67;2.00;;;;;17.00;76.36;100442.84;5110948;27;46145;-77
2023/01/15 11:37:05;;;;;;;;;2.33;2.33;;;;;16.98;73.96;100442.25;5092915;27;45336;-77
2023/01/15 11:39:31;;;;;;;;;3.33;2.67;;;;;16.97;78.06;100433.38;5090123;27;45272;-77
2023/01/15 11:53:03;;;;;;;;;2.67;2.67;;;;;17.30;76.96;100415.22;5108811;27;45245;-77
2023/01/15 11:55:28;;;;;;;;;1.00;1.00;;;;;17.26;76.41;100411.38;5088561;27;47169;-78
2023/01/15 11:57:56;;;;;;;;;5.00;5.00;;;;;17.49;75.67;100421.41;5107504;27;45372;-78
2023/01/15 12:00:27;;;;;;;;;3.67;2.67;;;;;17.38;76.75;100422.16;5077992;28;45398;-78
2023/01/15 12:03:01;;;;;;;;;3.00;1.67;;;;;17.36;77.22;100418.91;5104065;27;45214;-78
2023/01/15 12:05:31;;;;;;;;;1.00;1.00;;;;;17.41;75.22;100416.31;5106462;27;45507;-78
2023/01/15 12:08:00;;;;;;;;;2.00;2.00;;;;;17.45;76.07;100405.97;5099629;27;45370;-79
2023/01/15 12:11:03;;;;;;;;;3.33;3.33;;;;;17.42;75.93;100418.78;5102449;27;45409;-79
2023/01/15 12:14:04;;;;;;;;;11.00;11.00;;;;;17.35;73.46;100412.69;5080746;27;47484;-79
2023/01/15 12:16:49;;;;;;;;;4.67;3.00;;;;;17.35;71.78;100399.25;5078399;27;46384;-77
2023/01/15 12:19:53;;;;;;;;;2.00;2.00;;;;;17.39;74.60;100402.31;5107917;27;45323;-78
2023/01/15 12:22:33;;;;;;;;;0.33;0.33;;;;;17.35;71.17;100383.16;5073952;27;45220;-78
2023/01/15 12:25:01;;;;;;;;;3.67;1.67;;;;;17.43;70.38;100395.44;5107310;27;45338;-79
2023/01/15 12:27:51;;;;;;;;;5.33;5.33;;;;;17.52;70.58;100380.66;5100883;27;46191;-79